createdAt,value
2022-10-11T00:12:58.781Z,10.3
2022-10-11T00:27:30.487Z,10.1
2022-10-11T00:42:02.798Z,9.7
2022-10-11T00:56:35.522Z,9.1
2022-10-11T01:11:07.098Z,8.7
2022-10-11T01:25:39.653Z,9
2022-10-11T01:40:12.198Z,8.8
2022-10-11T01:55:07.931Z,8.6
2022-10-11T02:09:29.660Z,8.4
2022-10-11T02:24:01.579Z,8.3
2022-10-11T02:38:34.470Z,7.9
2022-10-11T02:53:06.876Z,8.4
2022-10-11T03:07:38.995Z,8
2022-10-11T03:22:09.857Z,7.7
2022-10-11T03:36:43.663Z,8
2022-10-11T03:51:16.289Z,7.7
2022-10-11T04:05:49.387Z,7.8
2022-10-11T04:20:20.008Z,7.8
2022-10-11T04:34:53.000Z,7.1
2022-10-11T04:49:25.196Z,7.1
2022-10-11T05:03:58.011Z,7.3
2022-10-11T05:18:29.755Z,7.1
2022-10-11T05:33:00.989Z,6.4
2022-10-11T05:47:31.302Z,6.4
2022-10-11T06:02:03.303Z,6.4
2022-10-11T06:16:35.308Z,6.6
2022-10-11T06:31:09.872Z,6.5
2022-10-11T06:45:42.561Z,6.9
2022-10-11T07:00:16.317Z,7
2022-10-11T07:14:50.303Z,6.5
2022-10-11T07:29:22.820Z,7
2022-10-11T07:43:57.557Z,6.8
2022-10-11T07:58:31.032Z,7.1
2022-10-11T08:13:14.318Z,11.2
2022-10-11T08:27:49.519Z,11.1
2022-10-11T08:42:23.053Z,10.5
2022-10-11T08:56:54.254Z,10.9
2022-10-11T09:11:27.984Z,12.4
2022-10-11T09:26:03.775Z,13.9
2022-10-11T09:40:41.549Z,14.1
2022-10-11T09:55:10.856Z,13.3
2022-10-11T10:09:43.973Z,13.8
2022-10-11T10:24:17.331Z,14.6
2022-10-11T10:38:51.951Z,14.6
2022-10-11T10:53:24.035Z,15.1
2022-10-11T11:07:54.881Z,14.4
2022-10-11T11:22:29.152Z,14.2
2022-10-11T11:37:01.438Z,14
2022-10-11T11:51:36.865Z,15.1
2022-10-11T12:06:07.997Z,14.8
2022-10-11T12:20:40.813Z,15.2
2022-10-11T12:35:12.961Z,15.6
2022-10-11T12:49:47.160Z,15.7
2022-10-11T13:04:21.173Z,15.5
2022-10-11T13:18:53.663Z,15
2022-10-11T13:48:04.758Z,15.6
2022-10-11T14:02:37.201Z,15.5
2022-10-11T14:17:11.120Z,15.4
2022-10-11T14:31:43.369Z,15.7
2022-10-11T14:46:16.837Z,15.3
2022-10-11T15:00:49.026Z,15.5
2022-10-11T15:15:22.815Z,15.4
2022-10-11T15:29:55.459Z,15.1
2022-10-11T15:44:28.146Z,15
2022-10-11T15:59:00.400Z,14.8
2022-10-11T16:13:32.015Z,14.3
2022-10-11T16:28:02.839Z,13.9
2022-10-11T16:42:35.425Z,13.3
2022-10-11T16:57:06.266Z,13
2022-10-11T17:11:39.419Z,12.4
2022-10-11T17:26:11.956Z,11.9
2022-10-11T17:55:19.467Z,11.3
2022-10-11T18:09:52.554Z,11.1
2022-10-11T18:24:24.774Z,10.6
2022-10-11T18:38:57.252Z,10.5
2022-10-11T18:53:28.528Z,9.8
2022-10-11T19:08:01.181Z,9.6
2022-10-11T19:22:23.255Z,9.6
2022-10-11T19:36:54.637Z,9.7
2022-10-11T19:51:26.345Z,8.9
2022-10-11T20:05:59.807Z,9
2022-10-11T20:20:31.874Z,9.3
2022-10-11T20:35:04.721Z,9.3
2022-10-11T20:49:36.472Z,8.6
2022-10-11T21:04:08.136Z,8
2022-10-11T21:18:39.876Z,8
2022-10-11T21:33:13.260Z,8.3
2022-10-11T21:47:49.408Z,8.4
2022-10-11T22:02:20.786Z,8.3
2022-10-11T22:16:53.540Z,7.9
2022-10-11T22:31:25.365Z,7
2022-10-11T22:45:57.312Z,7.3
2022-10-11T23:00:28.848Z,7.1
2022-10-11T23:15:01.610Z,7.1
2022-10-11T23:29:33.380Z,7.1
2022-10-11T23:44:05.845Z,6.8
2022-10-11T23:58:38.329Z,6.6
